sensor_id;sensor_type;location;lat;lon;timestamp;P1;durP1;ratioP1;P2;durP2;ratioP2
60831;SDS011;46665;51.558;-0.448;2023-05-07T00:01:12;7.75;;;4.47;;
60831;SDS011;46665;51.558;-0.448;2023-05-07T00:03:38;5.97;;;5.10;;
60831;SDS011;46665;51.558;-0.448;2023-05-07T00:06:04;6.93;;;5.35;;
60831;SDS011;46665;51.558;-0.448;2023-05-07T00:08:29;5.18;;;4.20;;
60831;SDS011;46665;51.558;-0.448;2023-05-07T00:10:55;8.20;;;4.70;;
60831;SDS011;46665;51.558;-0.448;2023-05-07T00:13:20;8.02;;;5.15;;
60831;SDS011;46665;51.558;-0.448;2023-05-07T00:15:45;8.30;;;4.68;;
60831;SDS011;46665;51.558;-0.448;2023-05-07T00:18:11;7.38;;;5.07;;
60831;SDS011;46665;51.558;-0.448;2023-05-07T00:20:36;7.10;;;5.03;;
60831;SDS011;46665;51.558;-0.448;2023-05-07T00:23:02;8.18;;;5.05;;
60831;SDS011;46665;51.558;-0.448;2023-05-07T00:25:27;8.30;;;4.97;;
60831;SDS011;46665;51.558;-0.448;2023-05-07T00:27:53;8.65;;;5.50;;
60831;SDS011;46665;51.558;-0.448;2023-05-07T00:30:18;6.38;;;5.55;;
60831;SDS011;46665;51.558;-0.448;2023-05-07T00:32:43;7.60;;;4.95;;
60831;SDS011;46665;51.558;-0.448;2023-05-07T00:35:10;7.25;;;5.65;;
60831;SDS011;46665;51.558;-0.448;2023-05-07T00:37:36;14.43;;;6.28;;
60831;SDS011;46665;51.558;-0.448;2023-05-07T00:40:01;10.45;;;6.38;;
60831;SDS011;46665;51.558;-0.448;2023-05-07T00:42:29;11.65;;;6.13;;
60831;SDS011;46665;51.558;-0.448;2023-05-07T00:44:57;6.95;;;5.80;;
60831;SDS011;46665;51.558;-0.448;2023-05-07T00:47:23;8.02;;;5.50;;
60831;SDS011;46665;51.558;-0.448;2023-05-07T00:49:50;6.20;;;5.30;;
60831;SDS011;46665;51.558;-0.448;2023-05-07T00:52:16;10.15;;;5.95;;
60831;SDS011;46665;51.558;-0.448;2023-05-07T00:54:44;11.27;;;5.53;;
60831;SDS011;46665;51.558;-0.448;2023-05-07T00:57:10;10.70;;;6.63;;
60831;SDS011;46665;51.558;-0.448;2023-05-07T00:59:38;8.88;;;5.90;;
60831;SDS011;46665;51.558;-0.448;2023-05-07T01:02:05;12.18;;;6.65;;
60831;SDS011;46665;51.558;-0.448;2023-05-07T01:04:31;7.93;;;5.07;;
60831;SDS011;46665;51.558;-0.448;2023-05-07T01:06:57;13.93;;;6.53;;
60831;SDS011;46665;51.558;-0.448;2023-05-07T01:09:24;9.07;;;5.75;;
60831;SDS011;46665;51.558;-0.448;2023-05-07T01:11:50;11.73;;;5.80;;
60831;SDS011;46665;51.558;-0.448;2023-05-07T01:14:16;9.57;;;5.18;;
60831;SDS011;46665;51.558;-0.448;2023-05-07T01:16:42;8.45;;;5.78;;
60831;SDS011;46665;51.558;-0.448;2023-05-07T01:19:08;19.65;;;5.95;;
60831;SDS011;46665;51.558;-0.448;2023-05-07T01:21:36;9.95;;;5.72;;
60831;SDS011;46665;51.558;-0.448;2023-05-07T01:24:02;9.07;;;5.82;;
60831;SDS011;46665;51.558;-0.448;2023-05-07T01:26:30;11.27;;;5.90;;
60831;SDS011;46665;51.558;-0.448;2023-05-07T01:28:55;12.60;;;6.22;;
60831;SDS011;46665;51.558;-0.448;2023-05-07T01:31:21;9.77;;;6.60;;
60831;SDS011;46665;51.558;-0.448;2023-05-07T01:33:49;13.52;;;6.45;;
60831;SDS011;46665;51.558;-0.448;2023-05-07T01:36:17;8.95;;;5.63;;
60831;SDS011;46665;51.558;-0.448;2023-05-07T01:38:45;11.68;;;6.00;;
60831;SDS011;46665;51.558;-0.448;2023-05-07T01:41:11;8.27;;;5.13;;
60831;SDS011;46665;51.558;-0.448;2023-05-07T01:43:37;6.47;;;5.72;;
60831;SDS011;46665;51.558;-0.448;2023-05-07T01:46:02;8.85;;;5.30;;
60831;SDS011;46665;51.558;-0.448;2023-05-07T01:48:28;10.27;;;5.20;;
60831;SDS011;46665;51.558;-0.448;2023-05-07T01:50:54;6.75;;;5.45;;
60831;SDS011;46665;51.558;-0.448;2023-05-07T01:53:20;9.60;;;5.97;;
60831;SDS011;46665;51.558;-0.448;2023-05-07T01:55:45;8.52;;;5.05;;
60831;SDS011;46665;51.558;-0.448;2023-05-07T01:58:11;11.93;;;5.65;;
60831;SDS011;46665;51.558;-0.448;2023-05-07T02:00:36;9.90;;;4.63;;
60831;SDS011;46665;51.558;-0.448;2023-05-07T02:03:03;6.05;;;4.63;;
60831;SDS011;46665;51.558;-0.448;2023-05-07T02:05:29;6.30;;;4.63;;
60831;SDS011;46665;51.558;-0.448;2023-05-07T02:07:54;7.15;;;5.03;;
60831;SDS011;46665;51.558;-0.448;2023-05-07T02:10:20;7.30;;;4.88;;
60831;SDS011;46665;51.558;-0.448;2023-05-07T02:12:45;6.03;;;5.10;;
60831;SDS011;46665;51.558;-0.448;2023-05-07T02:15:11;14.60;;;4.47;;
60831;SDS011;46665;51.558;-0.448;2023-05-07T02:17:39;13.52;;;5.13;;
60831;SDS011;46665;51.558;-0.448;2023-05-07T02:20:22;9.10;;;4.93;;
60831;SDS011;46665;51.558;-0.448;2023-05-07T02:22:47;9.88;;;4.53;;
60831;SDS011;46665;51.558;-0.448;2023-05-07T02:25:13;11.30;;;5.28;;
60831;SDS011;46665;51.558;-0.448;2023-05-07T02:27:38;5.28;;;3.97;;
60831;SDS011;46665;51.558;-0.448;2023-05-07T02:30:03;9.27;;;5.32;;
60831;SDS011;46665;51.558;-0.448;2023-05-07T02:32:29;5.82;;;4.00;;
60831;SDS011;46665;51.558;-0.448;2023-05-07T02:34:55;7.57;;;4.60;;
60831;SDS011;46665;51.558;-0.448;2023-05-07T02:37:20;8.40;;;4.20;;
60831;SDS011;46665;51.558;-0.448;2023-05-07T02:39:46;5.85;;;3.83;;
60831;SDS011;46665;51.558;-0.448;2023-05-07T02:42:11;9.35;;;5.00;;
60831;SDS011;46665;51.558;-0.448;2023-05-07T02:44:36;11.02;;;4.82;;
60831;SDS011;46665;51.558;-0.448;2023-05-07T02:47:03;7.65;;;4.18;;
60831;SDS011;46665;51.558;-0.448;2023-05-07T02:49:29;7.05;;;4.07;;
60831;SDS011;46665;51.558;-0.448;2023-05-07T02:51:54;8.38;;;4.55;;
60831;SDS011;46665;51.558;-0.448;2023-05-07T02:54:20;9.35;;;4.25;;
60831;SDS011;46665;51.558;-0.448;2023-05-07T02:56:46;6.18;;;4.22;;
60831;SDS011;46665;51.558;-0.448;2023-05-07T02:59:11;7.45;;;4.18;;
60831;SDS011;46665;51.558;-0.448;2023-05-07T03:01:36;10.68;;;3.83;;
60831;SDS011;46665;51.558;-0.448;2023-05-07T03:04:02;5.82;;;3.85;;
60831;SDS011;46665;51.558;-0.448;2023-05-07T03:06:27;5.00;;;2.97;;
60831;SDS011;46665;51.558;-0.448;2023-05-07T03:08:53;6.30;;;3.70;;
60831;SDS011;46665;51.558;-0.448;2023-05-07T03:11:18;7.07;;;4.47;;
60831;SDS011;46665;51.558;-0.448;2023-05-07T03:13:43;7.00;;;3.80;;
60831;SDS011;46665;51.558;-0.448;2023-05-07T03:16:09;6.15;;;3.85;;
60831;SDS011;46665;51.558;-0.448;2023-05-07T03:18:34;4.80;;;3.22;;
60831;SDS011;46665;51.558;-0.448;2023-05-07T03:21:00;5.43;;;3.95;;
60831;SDS011;46665;51.558;-0.448;2023-05-07T03:23:25;4.22;;;3.67;;
60831;SDS011;46665;51.558;-0.448;2023-05-07T03:25:51;4.10;;;3.50;;
60831;SDS011;46665;51.558;-0.448;2023-05-07T03:28:17;10.60;;;3.17;;
60831;SDS011;46665;51.558;-0.448;2023-05-07T03:30:43;7.95;;;3.88;;
60831;SDS011;46665;51.558;-0.448;2023-05-07T03:33:08;9.32;;;3.83;;
60831;SDS011;46665;51.558;-0.448;2023-05-07T03:35:33;5.55;;;3.53;;
60831;SDS011;46665;51.558;-0.448;2023-05-07T03:37:59;6.13;;;3.47;;
60831;SDS011;46665;51.558;-0.448;2023-05-07T03:40:24;9.25;;;4.28;;
60831;SDS011;46665;51.558;-0.448;2023-05-07T03:42:50;5.85;;;3.78;;
60831;SDS011;46665;51.558;-0.448;2023-05-07T03:45:15;13.25;;;3.70;;
60831;SDS011;46665;51.558;-0.448;2023-05-07T03:47:40;6.78;;;3.40;;
60831;SDS011;46665;51.558;-0.448;2023-05-07T03:50:06;7.25;;;3.70;;
60831;SDS011;46665;51.558;-0.448;2023-05-07T03:52:31;3.15;;;2.67;;
60831;SDS011;46665;51.558;-0.448;2023-05-07T03:54:57;5.85;;;3.28;;
60831;SDS011;46665;51.558;-0.448;2023-05-07T03:57:22;6.03;;;3.40;;
60831;SDS011;46665;51.558;-0.448;2023-05-07T03:59:48;10.25;;;4.13;;
60831;SDS011;46665;51.558;-0.448;2023-05-07T04:02:13;7.10;;;3.75;;
60831;SDS011;46665;51.558;-0.448;2023-05-07T04:04:38;6.35;;;2.80;;
60831;SDS011;46665;51.558;-0.448;2023-05-07T04:07:04;6.20;;;3.22;;
60831;SDS011;46665;51.558;-0.448;2023-05-07T04:09:29;5.53;;;3.30;;
60831;SDS011;46665;51.558;-0.448;2023-05-07T04:11:55;4.95;;;3.13;;
60831;SDS011;46665;51.558;-0.448;2023-05-07T04:14:20;4.28;;;3.60;;
60831;SDS011;46665;51.558;-0.448;2023-05-07T04:16:45;10.07;;;3.15;;
60831;SDS011;46665;51.558;-0.448;2023-05-07T04:19:11;6.97;;;3.38;;
60831;SDS011;46665;51.558;-0.448;2023-05-07T04:21:36;7.93;;;3.92;;
60831;SDS011;46665;51.558;-0.448;2023-05-07T04:24:03;6.95;;;3.25;;
60831;SDS011;46665;51.558;-0.448;2023-05-07T04:26:29;8.50;;;3.63;;
60831;SDS011;46665;51.558;-0.448;2023-05-07T04:28:54;6.72;;;3.50;;
60831;SDS011;46665;51.558;-0.448;2023-05-07T04:31:20;7.75;;;3.65;;
60831;SDS011;46665;51.558;-0.448;2023-05-07T04:33:45;8.70;;;3.95;;
60831;SDS011;46665;51.558;-0.448;2023-05-07T04:36:10;5.03;;;3.13;;
60831;SDS011;46665;51.558;-0.448;2023-05-07T04:38:36;3.42;;;3.00;;
60831;SDS011;46665;51.558;-0.448;2023-05-07T04:41:05;7.00;;;3.00;;
60831;SDS011;46665;51.558;-0.448;2023-05-07T04:43:31;9.88;;;3.55;;
60831;SDS011;46665;51.558;-0.448;2023-05-07T04:45:57;4.45;;;3.22;;
60831;SDS011;46665;51.558;-0.448;2023-05-07T04:48:22;4.03;;;3.22;;
60831;SDS011;46665;51.558;-0.448;2023-05-07T04:50:48;7.45;;;4.30;;
60831;SDS011;46665;51.558;-0.448;2023-05-07T04:53:14;4.57;;;2.88;;
60831;SDS011;46665;51.558;-0.448;2023-05-07T04:55:39;7.05;;;3.88;;
60831;SDS011;46665;51.558;-0.448;2023-05-07T04:58:05;6.60;;;3.40;;
60831;SDS011;46665;51.558;-0.448;2023-05-07T05:00:31;10.48;;;4.13;;
60831;SDS011;46665;51.558;-0.448;2023-05-07T05:02:56;4.68;;;3.55;;
60831;SDS011;46665;51.558;-0.448;2023-05-07T05:05:22;4.80;;;4.00;;
60831;SDS011;46665;51.558;-0.448;2023-05-07T05:07:47;5.75;;;3.42;;
60831;SDS011;46665;51.558;-0.448;2023-05-07T05:10:13;6.00;;;4.47;;
60831;SDS011;46665;51.558;-0.448;2023-05-07T05:12:38;7.20;;;4.45;;
60831;SDS011;46665;51.558;-0.448;2023-05-07T05:15:04;9.00;;;3.47;;
60831;SDS011;46665;51.558;-0.448;2023-05-07T05:17:30;10.90;;;4.07;;
60831;SDS011;46665;51.558;-0.448;2023-05-07T05:19:55;8.77;;;4.90;;
60831;SDS011;46665;51.558;-0.448;2023-05-07T05:22:21;10.48;;;5.20;;
60831;SDS011;46665;51.558;-0.448;2023-05-07T05:24:46;13.15;;;6.40;;
60831;SDS011;46665;51.558;-0.448;2023-05-07T05:27:12;8.02;;;4.43;;
60831;SDS011;46665;51.558;-0.448;2023-05-07T05:29:37;8.32;;;4.22;;
60831;SDS011;46665;51.558;-0.448;2023-05-07T05:32:02;8.25;;;4.50;;
60831;SDS011;46665;51.558;-0.448;2023-05-07T05:34:28;7.55;;;4.60;;
60831;SDS011;46665;51.558;-0.448;2023-05-07T05:36:53;7.32;;;4.93;;
60831;SDS011;46665;51.558;-0.448;2023-05-07T05:39:18;10.40;;;4.35;;
60831;SDS011;46665;51.558;-0.448;2023-05-07T05:41:44;8.35;;;4.70;;
60831;SDS011;46665;51.558;-0.448;2023-05-07T05:44:09;7.55;;;5.43;;
60831;SDS011;46665;51.558;-0.448;2023-05-07T05:46:34;12.05;;;4.35;;
60831;SDS011;46665;51.558;-0.448;2023-05-07T05:49:00;9.93;;;5.30;;
60831;SDS011;46665;51.558;-0.448;2023-05-07T05:51:25;11.27;;;5.63;;
60831;SDS011;46665;51.558;-0.448;2023-05-07T05:53:51;7.13;;;4.22;;
60831;SDS011;46665;51.558;-0.448;2023-05-07T05:56:16;9.02;;;4.30;;
60831;SDS011;46665;51.558;-0.448;2023-05-07T05:58:42;9.90;;;5.07;;
60831;SDS011;46665;51.558;-0.448;2023-05-07T06:01:07;6.57;;;4.93;;
60831;SDS011;46665;51.558;-0.448;2023-05-07T06:03:33;8.18;;;5.20;;
60831;SDS011;46665;51.558;-0.448;2023-05-07T06:05:58;8.90;;;5.65;;
60831;SDS011;46665;51.558;-0.448;2023-05-07T06:08:25;7.05;;;5.00;;
60831;SDS011;46665;51.558;-0.448;2023-05-07T06:10:50;9.98;;;4.22;;
60831;SDS011;46665;51.558;-0.448;2023-05-07T06:13:16;7.82;;;4.60;;
60831;SDS011;46665;51.558;-0.448;2023-05-07T06:15:41;9.00;;;4.68;;
60831;SDS011;46665;51.558;-0.448;2023-05-07T06:18:07;6.03;;;3.85;;
60831;SDS011;46665;51.558;-0.448;2023-05-07T06:20:32;7.72;;;4.90;;
60831;SDS011;46665;51.558;-0.448;2023-05-07T06:22:57;9.85;;;4.25;;
60831;SDS011;46665;51.558;-0.448;2023-05-07T06:25:23;5.60;;;3.78;;
60831;SDS011;46665;51.558;-0.448;2023-05-07T06:27:48;9.80;;;4.60;;
60831;SDS011;46665;51.558;-0.448;2023-05-07T06:30:14;8.65;;;3.78;;
60831;SDS011;46665;51.558;-0.448;2023-05-07T06:32:40;8.93;;;4.28;;
60831;SDS011;46665;51.558;-0.448;2023-05-07T06:35:06;12.63;;;4.05;;
60831;SDS011;46665;51.558;-0.448;2023-05-07T06:37:31;5.95;;;3.58;;
60831;SDS011;46665;51.558;-0.448;2023-05-07T06:39:57;8.25;;;4.75;;
60831;SDS011;46665;51.558;-0.448;2023-05-07T06:42:22;5.32;;;4.25;;
60831;SDS011;46665;51.558;-0.448;2023-05-07T06:44:47;7.90;;;5.18;;
60831;SDS011;46665;51.558;-0.448;2023-05-07T06:47:13;6.47;;;4.13;;
60831;SDS011;46665;51.558;-0.448;2023-05-07T06:49:38;6.93;;;3.78;;
60831;SDS011;46665;51.558;-0.448;2023-05-07T06:52:04;6.13;;;3.60;;
60831;SDS011;46665;51.558;-0.448;2023-05-07T06:54:29;5.60;;;3.63;;
60831;SDS011;46665;51.558;-0.448;2023-05-07T06:56:54;6.70;;;3.88;;
60831;SDS011;46665;51.558;-0.448;2023-05-07T06:59:20;11.93;;;4.47;;
60831;SDS011;46665;51.558;-0.448;2023-05-07T07:01:45;4.45;;;4.03;;
60831;SDS011;46665;51.558;-0.448;2023-05-07T07:04:11;4.55;;;3.65;;
60831;SDS011;46665;51.558;-0.448;2023-05-07T07:06:36;6.43;;;3.95;;
60831;SDS011;46665;51.558;-0.448;2023-05-07T07:09:01;6.50;;;3.53;;
60831;SDS011;46665;51.558;-0.448;2023-05-07T07:11:27;7.95;;;4.03;;
60831;SDS011;46665;51.558;-0.448;2023-05-07T07:13:52;4.50;;;3.42;;
60831;SDS011;46665;51.558;-0.448;2023-05-07T07:16:19;7.28;;;3.28;;
60831;SDS011;46665;51.558;-0.448;2023-05-07T07:18:46;4.72;;;3.78;;
60831;SDS011;46665;51.558;-0.448;2023-05-07T07:21:11;5.18;;;3.25;;
60831;SDS011;46665;51.558;-0.448;2023-05-07T07:23:36;5.70;;;3.30;;
60831;SDS011;46665;51.558;-0.448;2023-05-07T07:26:02;4.60;;;3.60;;
60831;SDS011;46665;51.558;-0.448;2023-05-07T07:28:27;6.93;;;3.90;;
60831;SDS011;46665;51.558;-0.448;2023-05-07T07:30:53;4.07;;;3.00;;
60831;SDS011;46665;51.558;-0.448;2023-05-07T07:33:18;5.55;;;3.38;;
60831;SDS011;46665;51.558;-0.448;2023-05-07T07:35:44;5.10;;;3.88;;
60831;SDS011;46665;51.558;-0.448;2023-05-07T07:38:09;8.95;;;4.07;;
60831;SDS011;46665;51.558;-0.448;2023-05-07T07:40:35;5.20;;;3.65;;
60831;SDS011;46665;51.558;-0.448;2023-05-07T07:43:00;4.00;;;3.00;;
60831;SDS011;46665;51.558;-0.448;2023-05-07T07:45:26;14.57;;;3.95;;
60831;SDS011;46665;51.558;-0.448;2023-05-07T07:47:52;3.95;;;2.72;;
60831;SDS011;46665;51.558;-0.448;2023-05-07T07:50:17;8.77;;;3.10;;
60831;SDS011;46665;51.558;-0.448;2023-05-07T07:52:43;4.22;;;3.13;;
60831;SDS011;46665;51.558;-0.448;2023-05-07T07:55:09;5.13;;;3.17;;
60831;SDS011;46665;51.558;-0.448;2023-05-07T07:57:34;7.20;;;3.15;;
60831;SDS011;46665;51.558;-0.448;2023-05-07T08:00:00;13.98;;;3.63;;
60831;SDS011;46665;51.558;-0.448;2023-05-07T08:02:25;6.95;;;3.67;;
60831;SDS011;46665;51.558;-0.448;2023-05-07T08:04:51;5.15;;;2.70;;
60831;SDS011;46665;51.558;-0.448;2023-05-07T08:07:16;4.43;;;3.10;;
60831;SDS011;46665;51.558;-0.448;2023-05-07T08:09:45;6.47;;;3.50;;
60831;SDS011;46665;51.558;-0.448;2023-05-07T08:12:11;5.80;;;2.95;;
60831;SDS011;46665;51.558;-0.448;2023-05-07T08:14:36;4.15;;;3.33;;
60831;SDS011;46665;51.558;-0.448;2023-05-07T08:17:02;3.13;;;2.83;;
60831;SDS011;46665;51.558;-0.448;2023-05-07T08:19:27;2.53;;;2.22;;
60831;SDS011;46665;51.558;-0.448;2023-05-07T08:21:52;5.72;;;2.75;;
60831;SDS011;46665;51.558;-0.448;2023-05-07T08:24:18;2.75;;;2.28;;
60831;SDS011;46665;51.558;-0.448;2023-05-07T08:26:44;4.40;;;2.42;;
60831;SDS011;46665;51.558;-0.448;2023-05-07T08:29:10;4.53;;;2.75;;
60831;SDS011;46665;51.558;-0.448;2023-05-07T08:31:35;2.78;;;2.25;;
60831;SDS011;46665;51.558;-0.448;2023-05-07T08:34:01;4.40;;;2.15;;
60831;SDS011;46665;51.558;-0.448;2023-05-07T08:36:26;2.67;;;2.47;;
60831;SDS011;46665;51.558;-0.448;2023-05-07T08:38:52;2.95;;;2.20;;
60831;SDS011;46665;51.558;-0.448;2023-05-07T08:41:18;3.42;;;1.90;;
60831;SDS011;46665;51.558;-0.448;2023-05-07T08:43:48;4.63;;;2.42;;
60831;SDS011;46665;51.558;-0.448;2023-05-07T08:46:21;2.85;;;2.15;;
60831;SDS011;46665;51.558;-0.448;2023-05-07T08:48:50;2.72;;;1.92;;
60831;SDS011;46665;51.558;-0.448;2023-05-07T08:51:20;6.20;;;2.13;;
60831;SDS011;46665;51.558;-0.448;2023-05-07T08:53:47;4.63;;;2.20;;
60831;SDS011;46665;51.558;-0.448;2023-05-07T08:56:13;14.38;;;2.55;;
60831;SDS011;46665;51.558;-0.448;2023-05-07T08:58:45;4.93;;;1.90;;
60831;SDS011;46665;51.558;-0.448;2023-05-07T09:01:13;3.55;;;2.10;;
60831;SDS011;46665;51.558;-0.448;2023-05-07T09:03:45;2.08;;;1.73;;
60831;SDS011;46665;51.558;-0.448;2023-05-07T09:06:12;2.13;;;1.88;;
60831;SDS011;46665;51.558;-0.448;2023-05-07T09:08:38;1.92;;;1.50;;
60831;SDS011;46665;51.558;-0.448;2023-05-07T09:11:04;2.15;;;1.40;;
60831;SDS011;46665;51.558;-0.448;2023-05-07T09:13:30;1.77;;;1.38;;
60831;SDS011;46665;51.558;-0.448;2023-05-07T09:15:57;1.50;;;1.38;;
60831;SDS011;46665;51.558;-0.448;2023-05-07T09:18:25;1.20;;;1.10;;
60831;SDS011;46665;51.558;-0.448;2023-05-07T09:20:51;1.45;;;1.35;;
60831;SDS011;46665;51.558;-0.448;2023-05-07T09:23:17;1.33;;;1.23;;
60831;SDS011;46665;51.558;-0.448;2023-05-07T09:25:42;1.77;;;1.23;;
60831;SDS011;46665;51.558;-0.448;2023-05-07T09:28:08;2.13;;;1.60;;
60831;SDS011;46665;51.558;-0.448;2023-05-07T09:30:35;2.42;;;1.38;;
60831;SDS011;46665;51.558;-0.448;2023-05-07T09:33:01;2.67;;;2.38;;
60831;SDS011;46665;51.558;-0.448;2023-05-07T09:35:28;2.53;;;2.28;;
60831;SDS011;46665;51.558;-0.448;2023-05-07T09:37:58;2.25;;;2.05;;
60831;SDS011;46665;51.558;-0.448;2023-05-07T09:40:25;2.38;;;1.90;;
60831;SDS011;46665;51.558;-0.448;2023-05-07T09:42:52;3.70;;;1.73;;
60831;SDS011;46665;51.558;-0.448;2023-05-07T09:45:36;2.90;;;2.10;;
60831;SDS011;46665;51.558;-0.448;2023-05-07T09:48:02;3.53;;;2.00;;
60831;SDS011;46665;51.558;-0.448;2023-05-07T09:50:32;2.50;;;2.00;;
60831;SDS011;46665;51.558;-0.448;2023-05-07T09:53:01;3.08;;;2.20;;
60831;SDS011;46665;51.558;-0.448;2023-05-07T09:55:28;2.28;;;1.75;;
60831;SDS011;46665;51.558;-0.448;2023-05-07T09:57:54;3.25;;;2.42;;
60831;SDS011;46665;51.558;-0.448;2023-05-07T10:00:21;3.90;;;3.00;;
60831;SDS011;46665;51.558;-0.448;2023-05-07T10:02:48;2.30;;;2.10;;
60831;SDS011;46665;51.558;-0.448;2023-05-07T10:05:16;2.65;;;2.40;;
60831;SDS011;46665;51.558;-0.448;2023-05-07T10:07:43;2.58;;;2.38;;
60831;SDS011;46665;51.558;-0.448;2023-05-07T10:10:09;5.15;;;2.95;;
60831;SDS011;46665;51.558;-0.448;2023-05-07T10:12:35;3.35;;;2.67;;
60831;SDS011;46665;51.558;-0.448;2023-05-07T10:17:35;2.45;;;2.25;;
60831;SDS011;46665;51.558;-0.448;2023-05-07T10:20:02;1.58;;;1.42;;
60831;SDS011;46665;51.558;-0.448;2023-05-07T10:22:29;4.35;;;1.70;;
60831;SDS011;46665;51.558;-0.448;2023-05-07T10:24:57;1.98;;;1.77;;
60831;SDS011;46665;51.558;-0.448;2023-05-07T10:27:27;2.17;;;1.90;;
60831;SDS011;46665;51.558;-0.448;2023-05-07T10:35:06;2.00;;;1.70;;
60831;SDS011;46665;51.558;-0.448;2023-05-07T10:37:39;1.65;;;1.55;;
60831;SDS011;46665;51.558;-0.448;2023-05-07T10:40:05;2.75;;;1.45;;
60831;SDS011;46665;51.558;-0.448;2023-05-07T10:42:32;1.98;;;1.17;;
60831;SDS011;46665;51.558;-0.448;2023-05-07T10:44:57;1.60;;;1.50;;
60831;SDS011;46665;51.558;-0.448;2023-05-07T10:47:23;2.72;;;1.83;;
60831;SDS011;46665;51.558;-0.448;2023-05-07T10:52:15;1.25;;;1.15;;
60831;SDS011;46665;51.558;-0.448;2023-05-07T10:54:43;1.45;;;1.35;;
60831;SDS011;46665;51.558;-0.448;2023-05-07T10:59:53;1.98;;;1.73;;
60831;SDS011;46665;51.558;-0.448;2023-05-07T11:02:19;2.15;;;1.58;;
60831;SDS011;46665;51.558;-0.448;2023-05-07T11:04:44;2.50;;;1.75;;
60831;SDS011;46665;51.558;-0.448;2023-05-07T11:07:26;2.40;;;1.95;;
60831;SDS011;46665;51.558;-0.448;2023-05-07T11:15:10;1.38;;;1.27;;
60831;SDS011;46665;51.558;-0.448;2023-05-07T11:17:52;1.85;;;1.20;;
60831;SDS011;46665;51.558;-0.448;2023-05-07T11:20:20;1.52;;;1.10;;
60831;SDS011;46665;51.558;-0.448;2023-05-07T11:22:46;2.33;;;1.33;;
60831;SDS011;46665;51.558;-0.448;2023-05-07T11:25:17;7.72;;;1.60;;
60831;SDS011;46665;51.558;-0.448;2023-05-07T11:27:44;2.05;;;1.88;;
60831;SDS011;46665;51.558;-0.448;2023-05-07T11:30:11;3.22;;;2.28;;
60831;SDS011;46665;51.558;-0.448;2023-05-07T11:32:42;1.92;;;1.83;;
60831;SDS011;46665;51.558;-0.448;2023-05-07T11:35:08;2.13;;;1.90;;
60831;SDS011;46665;51.558;-0.448;2023-05-07T11:37:34;4.70;;;1.60;;
60831;SDS011;46665;51.558;-0.448;2023-05-07T11:40:04;2.22;;;1.70;;
60831;SDS011;46665;51.558;-0.448;2023-05-07T11:42:33;1.35;;;1.25;;
60831;SDS011;46665;51.558;-0.448;2023-05-07T11:45:01;2.97;;;1.73;;
60831;SDS011;46665;51.558;-0.448;2023-05-07T11:47:29;1.92;;;1.70;;
60831;SDS011;46665;51.558;-0.448;2023-05-07T11:49:55;2.80;;;1.73;;
60831;SDS011;46665;51.558;-0.448;2023-05-07T11:52:21;1.73;;;1.63;;
60831;SDS011;46665;51.558;-0.448;2023-05-07T11:54:52;1.80;;;1.52;;
60831;SDS011;46665;51.558;-0.448;2023-05-07T11:57:20;1.50;;;1.40;;
60831;SDS011;46665;51.558;-0.448;2023-05-07T11:59:46;1.58;;;1.48;;
60831;SDS011;46665;51.558;-0.448;2023-05-07T12:02:14;3.10;;;1.25;;
60831;SDS011;46665;51.558;-0.448;2023-05-07T12:04:40;1.73;;;1.52;;
60831;SDS011;46665;51.558;-0.448;2023-05-07T12:07:13;1.83;;;1.73;;
60831;SDS011;46665;51.558;-0.448;2023-05-07T12:09:43;5.05;;;1.83;;
60831;SDS011;46665;51.558;-0.448;2023-05-07T12:12:12;2.80;;;1.20;;
60831;SDS011;46665;51.558;-0.448;2023-05-07T12:14:41;1.73;;;1.60;;
60831;SDS011;46665;51.558;-0.448;2023-05-07T12:17:08;1.38;;;1.15;;
60831;SDS011;46665;51.558;-0.448;2023-05-07T12:19:35;7.53;;;1.63;;
60831;SDS011;46665;51.558;-0.448;2023-05-07T12:22:04;1.83;;;1.40;;
60831;SDS011;46665;51.558;-0.448;2023-05-07T12:27:14;1.58;;;1.20;;
60831;SDS011;46665;51.558;-0.448;2023-05-07T12:29:47;1.27;;;1.17;;
60831;SDS011;46665;51.558;-0.448;2023-05-07T12:32:13;1.45;;;1.35;;
60831;SDS011;46665;51.558;-0.448;2023-05-07T12:34:40;1.58;;;1.48;;
60831;SDS011;46665;51.558;-0.448;2023-05-07T12:37:05;1.67;;;1.30;;
60831;SDS011;46665;51.558;-0.448;2023-05-07T12:39:30;1.58;;;1.15;;
60831;SDS011;46665;51.558;-0.448;2023-05-07T12:41:58;0.80;;;0.75;;
60831;SDS011;46665;51.558;-0.448;2023-05-07T12:44:25;2.13;;;1.10;;
60831;SDS011;46665;51.558;-0.448;2023-05-07T12:46:53;1.05;;;0.95;;
60831;SDS011;46665;51.558;-0.448;2023-05-07T12:49:19;1.50;;;1.08;;
60831;SDS011;46665;51.558;-0.448;2023-05-07T12:51:46;1.10;;;1.00;;
60831;SDS011;46665;51.558;-0.448;2023-05-07T12:54:13;0.93;;;0.82;;
60831;SDS011;46665;51.558;-0.448;2023-05-07T12:56:39;0.93;;;0.88;;
60831;SDS011;46665;51.558;-0.448;2023-05-07T12:59:05;1.25;;;1.08;;
60831;SDS011;46665;51.558;-0.448;2023-05-07T13:01:30;1.08;;;0.85;;
60831;SDS011;46665;51.558;-0.448;2023-05-07T13:04:03;1.02;;;0.95;;
60831;SDS011;46665;51.558;-0.448;2023-05-07T13:06:29;0.90;;;0.90;;
60831;SDS011;46665;51.558;-0.448;2023-05-07T13:08:55;0.50;;;0.50;;
60831;SDS011;46665;51.558;-0.448;2023-05-07T13:11:21;1.30;;;1.00;;
60831;SDS011;46665;51.558;-0.448;2023-05-07T13:13:47;0.85;;;0.80;;
60831;SDS011;46665;51.558;-0.448;2023-05-07T13:16:13;1.38;;;0.93;;
60831;SDS011;46665;51.558;-0.448;2023-05-07T13:18:39;1.02;;;0.93;;
60831;SDS011;46665;51.558;-0.448;2023-05-07T13:21:05;0.73;;;0.70;;
60831;SDS011;46665;51.558;-0.448;2023-05-07T13:23:31;2.38;;;0.60;;
60831;SDS011;46665;51.558;-0.448;2023-05-07T13:25:56;0.75;;;0.50;;
60831;SDS011;46665;51.558;-0.448;2023-05-07T13:28:22;1.00;;;0.80;;
60831;SDS011;46665;51.558;-0.448;2023-05-07T13:30:48;1.08;;;0.63;;
60831;SDS011;46665;51.558;-0.448;2023-05-07T13:33:13;0.73;;;0.38;;
60831;SDS011;46665;51.558;-0.448;2023-05-07T13:35:40;0.75;;;0.75;;
60831;SDS011;46665;51.558;-0.448;2023-05-07T13:38:05;1.75;;;0.50;;
60831;SDS011;46665;51.558;-0.448;2023-05-07T13:40:31;1.65;;;0.80;;
60831;SDS011;46665;51.558;-0.448;2023-05-07T13:42:57;0.50;;;0.50;;
60831;SDS011;46665;51.558;-0.448;2023-05-07T13:45:27;1.00;;;0.30;;
60831;SDS011;46665;51.558;-0.448;2023-05-07T13:47:54;0.77;;;0.60;;
60831;SDS011;46665;51.558;-0.448;2023-05-07T13:50:20;4.30;;;0.65;;
60831;SDS011;46665;51.558;-0.448;2023-05-07T13:52:46;0.85;;;0.60;;
60831;SDS011;46665;51.558;-0.448;2023-05-07T13:55:16;0.70;;;0.50;;
60831;SDS011;46665;51.558;-0.448;2023-05-07T13:57:42;0.50;;;0.30;;
60831;SDS011;46665;51.558;-0.448;2023-05-07T14:00:08;0.40;;;0.40;;
60831;SDS011;46665;51.558;-0.448;2023-05-07T14:02:34;0.40;;;0.40;;
60831;SDS011;46665;51.558;-0.448;2023-05-07T14:04:59;4.32;;;0.70;;
60831;SDS011;46665;51.558;-0.448;2023-05-07T14:07:25;0.50;;;0.50;;
60831;SDS011;46665;51.558;-0.448;2023-05-07T14:09:50;5.95;;;1.05;;
60831;SDS011;46665;51.558;-0.448;2023-05-07T14:12:16;0.55;;;0.38;;
60831;SDS011;46665;51.558;-0.448;2023-05-07T14:14:41;0.70;;;0.50;;
60831;SDS011;46665;51.558;-0.448;2023-05-07T14:17:06;0.47;;;0.40;;
60831;SDS011;46665;51.558;-0.448;2023-05-07T14:19:33;0.30;;;0.30;;
60831;SDS011;46665;51.558;-0.448;2023-05-07T14:21:58;1.08;;;0.50;;
60831;SDS011;46665;51.558;-0.448;2023-05-07T14:24:24;1.10;;;0.47;;
60831;SDS011;46665;51.558;-0.448;2023-05-07T14:26:49;1.05;;;0.22;;
60831;SDS011;46665;51.558;-0.448;2023-05-07T14:29:14;0.52;;;0.40;;
60831;SDS011;46665;51.558;-0.448;2023-05-07T14:31:43;2.17;;;0.52;;
60831;SDS011;46665;51.558;-0.448;2023-05-07T14:34:09;0.10;;;0.10;;
60831;SDS011;46665;51.558;-0.448;2023-05-07T14:36:35;1.50;;;1.40;;
60831;SDS011;46665;51.558;-0.448;2023-05-07T14:39:00;0.95;;;0.60;;
60831;SDS011;46665;51.558;-0.448;2023-05-07T14:41:26;0.30;;;0.30;;
60831;SDS011;46665;51.558;-0.448;2023-05-07T14:43:51;0.90;;;0.30;;
60831;SDS011;46665;51.558;-0.448;2023-05-07T14:46:17;0.20;;;0.20;;
60831;SDS011;46665;51.558;-0.448;2023-05-07T14:48:44;1.88;;;0.43;;